Tropical Cyclones
[Index]
Main Index Home Page Stock Weather Photos Extreme Storms Discussion Storm News and Storm Chasing Reports Tropical Cyclones / Hurricanes / Typhoons Weather Data and Links Wild Fires / Bushfires Weather Observation Techniques Weather Picture Catalogue Tornado Pictures and Reports Stock Video Footage and DVDs for sale
Season 1997-1998 Tropical Cyclone NUTE Track Map
Season 1997-1998 Summaries: [BoM-AU] [JTWC-AU] [JTWC-SIO] [JTWC-SPAC] [JTWC-SH]
<<- Previous TC | JTWC 1997-1998 Season | Next TC ->>

click for intensity scale information  Lat/long Grid: Show Hide

 Date Labels: Show Hide

Joint Typhoon Warning Centre Cyclone Data

Name: NUTE

15 Nov 1997 06:00 UTC to 21 Nov 1997 00:00 UTC

    date/time    lat    long     hPa   cat  kts
1997-11-15 06    9.0   180.0                  15          
1997-11-15 12    8.8   178.5                  15          
1997-11-15 18    8.5   176.5                  15          
1997-11-16 00    8.2   174.5                  15          
1997-11-16 06    8.2   173.2                  15          
1997-11-16 12    8.2   172.1                  15          
1997-11-16 18    8.2   171.0                  20          
1997-11-17 00    8.4   169.9                  20          
1997-11-17 06    9.1   168.9                  20          
1997-11-17 12    9.8   168.1                  20          
1997-11-17 18   10.4   167.3                  25          
1997-11-18 00   11.1   166.3                  30          
1997-11-18 06   11.5   165.1                  30          
1997-11-18 12   12.1   163.8                  35          
1997-11-18 18   12.7   162.7                  35          
1997-11-19 00   13.6   161.8            1     45          
1997-11-19 06   14.5   161.1            2     60          
1997-11-19 12   15.3   160.5            2     65          
1997-11-19 18   16.0   159.9            2     70          
1997-11-20 00   16.7   159.4            2     65          
1997-11-20 06   17.5   159.3            2     65          
1997-11-20 12   18.4   159.5            2     60          
1997-11-20 18   19.3   159.9            1     40          
1997-11-21 00   20.0   160.4                  20          
Winds are 1-min average.

Tropical cyclone tracks developed by Michael Bath using data from the Joint Typhoon Warning Centre Best Tracks and Google Maps.


[Australian Severe Weather index] [Copyright Notice] [Email Contacts] [Search This Site] [Privacy Policy]
Document: tropical_cyclone_nute.htm Updated: 18 September 2016